Time;durP1;ratioP1;P1;durP2;ratioP2;P2;SDS_P1;SDS_P2;PMS_P1;PMS_P2;Temp;Humidity;BMP_temperature;BMP_pressure;BME280_temperature;BME280_humidity;BME280_pressure;Samples;Min_cycle;Max_cycle;Signal;HPM_P1;HPM_P2
2022/07/30 00:01:50;;;;;;;3.40;1.48;;;11.40;99.90;;;;;;5055347;28;20190;-76
2022/07/30 00:04:20;;;;;;;2.40;1.40;;;11.40;99.90;;;;;;5037020;28;20206;-76
2022/07/30 00:06:53;;;;;;;4.35;1.65;;;11.60;99.90;;;;;;5030440;28;20289;-75
2022/07/30 00:09:24;;;;;;;3.97;1.42;;;11.70;99.90;;;;;;5034059;28;20209;-76
2022/07/30 00:11:54;;;;;;;5.03;1.58;;;11.90;99.90;;;;;;5034927;28;20570;-75
2022/07/30 00:14:25;;;;;;;3.60;1.50;;;12.00;99.90;;;;;;5038283;28;20191;-76
2022/07/30 00:16:55;;;;;;;2.90;1.10;;;12.10;99.90;;;;;;5047245;28;20197;-75
2022/07/30 00:19:26;;;;;;;4.30;1.38;;;12.20;99.90;;;;;;5042356;28;20221;-75
2022/07/30 00:21:58;;;;;;;7.00;1.33;;;12.40;99.90;;;;;;5039962;28;20201;-77
2022/07/30 00:24:29;;;;;;;4.20;1.30;;;12.50;99.90;;;;;;5041866;28;20205;-77
2022/07/30 00:27:00;;;;;;;4.15;1.50;;;12.70;99.90;;;;;;5049427;28;20190;-77
2022/07/30 00:29:31;;;;;;;5.25;1.77;;;12.80;99.90;;;;;;5046069;28;20198;-77
2022/07/30 00:32:01;;;;;;;3.13;1.58;;;12.90;99.90;;;;;;5043885;28;20712;-77
2022/07/30 00:34:32;;;;;;;6.32;1.70;;;13.00;99.90;;;;;;5037433;28;20523;-76
2022/07/30 00:37:04;;;;;;;3.42;1.17;;;13.10;99.90;;;;;;5025834;28;20323;-76
2022/07/30 00:39:35;;;;;;;7.40;1.40;;;13.20;99.90;;;;;;5036795;28;20746;-77
2022/07/30 00:42:06;;;;;;;4.28;1.52;;;13.30;99.90;;;;;;5034961;28;20198;-77
2022/07/30 00:44:37;;;;;;;3.80;1.75;;;13.50;99.90;;;;;;5034073;28;20194;-76
2022/07/30 00:47:08;;;;;;;5.18;1.40;;;13.60;99.90;;;;;;5041051;28;20205;-77
2022/07/30 00:49:38;;;;;;;4.13;1.10;;;13.70;99.90;;;;;;5037508;28;20611;-75
2022/07/30 00:52:11;;;;;;;4.47;1.05;;;13.80;99.90;;;;;;5034213;28;20194;-76
2022/07/30 00:54:41;;;;;;;2.95;1.00;;;13.90;99.90;;;;;;5034179;28;20195;-77
2022/07/30 00:57:12;;;;;;;4.47;1.52;;;13.90;99.90;;;;;;5033696;28;20190;-78
2022/07/30 00:59:43;;;;;;;4.75;1.20;;;14.00;99.90;;;;;;5014520;28;20215;-76
2022/07/30 01:02:14;;;;;;;5.32;1.75;;;14.10;99.90;;;;;;5019412;28;20193;-75
2022/07/30 01:04:44;;;;;;;5.32;1.30;;;14.20;99.90;;;;;;5035959;28;20209;-73
2022/07/30 01:07:17;;;;;;;3.22;1.00;;;14.30;99.90;;;;;;5033223;28;20593;-78
2022/07/30 01:09:51;;;;;;;2.95;1.10;;;14.30;99.90;;;;;;5033442;28;20194;-77
2022/07/30 01:12:25;;;;;;;3.95;1.52;;;14.40;99.90;;;;;;5033020;28;20253;-77
2022/07/30 01:14:59;;;;;;;3.75;1.10;;;14.50;99.90;;;;;;5034607;28;20646;-71
2022/07/30 01:17:30;;;;;;;3.00;0.95;;;14.60;99.90;;;;;;5047996;28;20189;-77
2022/07/30 01:20:05;;;;;;;3.78;1.08;;;14.60;99.90;;;;;;5033001;28;20585;-72
2022/07/30 01:22:56;;;;;;;3.65;1.20;;;14.60;99.90;;;;;;5033808;28;20209;-74
2022/07/30 01:25:46;;;;;;;4.90;1.40;;;14.60;99.90;;;;;;5033666;28;20198;-77
2022/07/30 01:28:20;;;;;;;8.00;1.67;;;14.70;99.90;;;;;;5040044;28;20209;-76
2022/07/30 01:30:52;;;;;;;6.18;1.42;;;14.90;99.90;;;;;;5034725;28;20220;-76
2022/07/30 01:33:25;;;;;;;3.13;1.20;;;15.00;99.90;;;;;;5044500;28;20190;-78
2022/07/30 01:35:57;;;;;;;2.10;0.80;;;15.10;99.90;;;;;;5033588;28;20194;-76
2022/07/30 01:38:29;;;;;;;5.72;1.00;;;15.20;99.90;;;;;;5033802;28;20245;-77
2022/07/30 01:41:02;;;;;;;7.78;2.28;;;15.20;99.90;;;;;;5033403;28;20197;-78
2022/07/30 01:43:34;;;;;;;5.05;1.20;;;15.20;99.90;;;;;;5033439;28;20194;-77
2022/07/30 01:46:06;;;;;;;4.57;1.00;;;15.20;99.90;;;;;;5037059;28;20198;-77
2022/07/30 01:48:39;;;;;;;3.75;0.75;;;15.30;99.90;;;;;;5048532;28;20204;-76
2022/07/30 01:51:11;;;;;;;4.57;0.70;;;15.40;99.90;;;;;;5040253;28;20619;-78
2022/07/30 01:53:43;;;;;;;2.53;0.55;;;15.40;99.90;;;;;;5052237;28;20198;-77
2022/07/30 01:56:18;;;;;;;2.22;0.65;;;15.30;99.90;;;;;;5035305;28;20549;-77
2022/07/30 01:58:50;;;;;;;5.60;1.15;;;15.40;99.90;;;;;;5045937;28;20224;-79
2022/07/30 02:01:20;;;;;;;4.80;1.10;;;15.50;99.90;;;;;;5039754;28;20638;-80
2022/07/30 02:03:51;;;;;;;0.55;0.40;;;15.60;99.90;;;;;;5032729;28;20197;-80
2022/07/30 02:06:24;;;;;;;4.78;0.70;;;15.60;99.90;;;;;;5041696;28;20205;-79
2022/07/30 02:08:57;;;;;;;2.40;0.50;;;15.70;99.90;;;;;;5035014;28;20601;-80
2022/07/30 02:14:23;;;;;;;6.30;1.05;;;15.80;99.90;;;;;;5039317;28;20232;-82
2022/07/30 02:16:57;;;;;;;2.25;0.70;;;15.90;99.90;;;;;;5032581;28;20598;-82
2022/07/30 02:19:34;;;;;;;3.83;0.77;;;15.90;99.90;;;;;;5032736;28;20613;-81
2022/07/30 02:22:09;;;;;;;2.60;0.65;;;16.00;99.90;;;;;;5032678;28;20613;-80
2022/07/30 02:24:42;;;;;;;5.72;0.80;;;16.10;99.90;;;;;;5046524;28;20544;-81
2022/07/30 02:27:18;;;;;;;2.88;1.00;;;16.00;99.90;;;;;;5050779;28;20664;-73
2022/07/30 02:29:51;;;;;;;2.53;0.77;;;16.10;99.90;;;;;;5031960;28;20210;-83
2022/07/30 02:32:24;;;;;;;4.43;0.60;;;16.20;99.90;;;;;;5044385;28;20221;-74
2022/07/30 02:35:01;;;;;;;2.97;0.50;;;16.10;99.90;;;;;;5012726;28;20201;-84
2022/07/30 02:37:34;;;;;;;3.05;0.68;;;16.00;99.90;;;;;;5023816;28;20225;-81
2022/07/30 02:40:05;;;;;;;4.32;0.80;;;16.00;99.90;;;;;;5030728;28;20214;-84
2022/07/30 02:42:38;;;;;;;6.40;0.85;;;16.10;99.90;;;;;;5031465;28;20197;-84
2022/07/30 02:45:10;;;;;;;2.25;0.60;;;16.10;99.90;;;;;;5031283;28;20197;-83
2022/07/30 02:47:42;;;;;;;3.42;0.70;;;16.20;99.90;;;;;;5032201;28;20190;-82
2022/07/30 02:50:14;;;;;;;8.27;1.50;;;16.30;99.90;;;;;;5031873;28;20197;-83
2022/07/30 02:52:46;;;;;;;6.90;1.88;;;16.40;99.90;;;;;;5032472;28;20194;-83
2022/07/30 02:55:19;;;;;;;3.38;0.82;;;16.40;99.90;;;;;;5032571;28;20197;-83
2022/07/30 02:57:55;;;;;;;2.22;0.75;;;16.40;99.90;;;;;;5033354;28;20201;-80
2022/07/30 03:00:26;;;;;;;3.03;0.80;;;16.40;99.90;;;;;;5036236;28;20252;-79
2022/07/30 03:02:59;;;;;;;4.13;0.90;;;16.30;99.90;;;;;;5036481;28;20217;-81
2022/07/30 03:05:31;;;;;;;2.75;0.70;;;16.30;99.90;;;;;;5036453;28;20190;-84
2022/07/30 03:08:02;;;;;;;2.60;0.80;;;16.20;99.90;;;;;;5036295;28;20672;-81
2022/07/30 03:10:35;;;;;;;1.90;0.70;;;16.20;99.90;;;;;;5036004;28;20198;-80
2022/07/30 03:13:11;;;;;;;1.98;0.70;;;16.40;99.90;;;;;;5036080;28;20194;-80
2022/07/30 03:15:47;;;;;;;1.77;0.57;;;16.40;99.90;;;;;;5036154;28;20225;-79
2022/07/30 03:18:20;;;;;;;4.35;0.85;;;16.40;99.90;;;;;;5036326;28;20230;-81
2022/07/30 03:20:55;;;;;;;3.72;0.95;;;16.40;99.90;;;;;;5035968;28;20218;-81
2022/07/30 03:23:26;;;;;;;2.58;0.88;;;16.40;99.90;;;;;;5036103;28;20190;-84
2022/07/30 03:26:00;;;;;;;5.63;0.70;;;16.30;99.90;;;;;;5042580;28;20200;-81
2022/07/30 03:28:35;;;;;;;2.10;0.60;;;16.20;99.90;;;;;;5056052;28;20285;-79
2022/07/30 03:31:09;;;;;;;2.47;0.70;;;16.30;99.90;;;;;;5026431;28;20229;-82
2022/07/30 03:33:40;;;;;;;2.90;0.70;;;16.30;99.90;;;;;;5034803;28;20607;-82
2022/07/30 03:36:13;;;;;;;4.10;0.80;;;16.20;99.90;;;;;;5055519;28;20189;-82
2022/07/30 03:38:45;;;;;;;3.65;0.80;;;16.10;99.90;;;;;;5037876;28;20198;-81
2022/07/30 03:41:17;;;;;;;2.35;0.60;;;16.20;99.90;;;;;;5035835;28;20198;-81
2022/07/30 03:43:50;;;;;;;2.55;1.20;;;16.20;99.90;;;;;;5035431;28;20194;-83
2022/07/30 03:46:22;;;;;;;2.97;0.80;;;16.40;99.90;;;;;;5035584;28;20578;-83
2022/07/30 03:48:55;;;;;;;1.42;0.60;;;16.30;99.90;;;;;;5036481;28;20198;-81
2022/07/30 03:51:27;;;;;;;1.67;0.60;;;16.30;99.90;;;;;;5055431;28;20194;-82
2022/07/30 03:53:58;;;;;;;1.13;0.50;;;16.30;99.90;;;;;;5055356;28;20270;-83
2022/07/30 03:56:29;;;;;;;3.50;0.98;;;16.30;99.90;;;;;;5055352;28;20198;-83
2022/07/30 03:59:01;;;;;;;3.22;0.50;;;16.30;99.90;;;;;;5052060;28;20198;-81
2022/07/30 04:01:33;;;;;;;2.55;0.60;;;16.30;99.90;;;;;;5035537;28;20194;-83
2022/07/30 04:04:07;;;;;;;2.92;0.52;;;16.30;99.90;;;;;;5035307;28;20258;-80
2022/07/30 04:06:41;;;;;;;1.98;0.50;;;16.30;99.90;;;;;;5035269;28;20672;-83
2022/07/30 04:09:13;;;;;;;0.93;0.40;;;16.30;99.90;;;;;;5034519;28;20278;-80
2022/07/30 04:11:43;;;;;;;1.13;0.40;;;16.30;99.90;;;;;;5035088;28;20202;-83
2022/07/30 04:14:16;;;;;;;1.13;0.40;;;16.30;99.90;;;;;;5035188;28;20868;-82
2022/07/30 04:16:51;;;;;;;2.15;0.43;;;16.30;99.90;;;;;;5035090;28;20237;-83
2022/07/30 04:19:26;;;;;;;2.25;0.57;;;16.20;99.90;;;;;;5035031;28;20218;-83
2022/07/30 04:21:59;;;;;;;2.00;0.60;;;16.20;99.90;;;;;;5035093;28;20198;-82
2022/07/30 04:24:31;;;;;;;1.38;0.65;;;16.20;99.90;;;;;;5034995;28;20301;-84
2022/07/30 04:27:03;;;;;;;2.63;0.77;;;16.20;99.90;;;;;;5049063;28;20660;-82
2022/07/30 04:29:36;;;;;;;1.92;0.43;;;16.20;99.90;;;;;;5036362;28;20199;-83
2022/07/30 04:32:09;;;;;;;1.85;0.40;;;16.10;99.90;;;;;;5040795;28;20267;-83
2022/07/30 04:34:46;;;;;;;1.13;0.63;;;16.00;99.90;;;;;;5035273;28;20224;-82
2022/07/30 04:37:19;;;;;;;2.72;0.75;;;15.90;99.90;;;;;;5042267;28;20225;-83
2022/07/30 04:39:53;;;;;;;2.65;0.65;;;15.80;99.90;;;;;;5054529;28;20213;-80
2022/07/30 04:42:23;;;;;;;4.38;0.70;;;15.80;99.90;;;;;;5054425;28;20239;-79
2022/07/30 04:44:57;;;;;;;3.97;0.60;;;15.80;99.90;;;;;;5043820;28;20196;-73
2022/07/30 04:47:27;;;;;;;2.30;0.50;;;15.90;99.90;;;;;;5021109;28;20190;-78
2022/07/30 04:49:59;;;;;;;1.63;0.50;;;15.90;99.90;;;;;;5033386;28;20201;-76
2022/07/30 04:52:33;;;;;;;2.45;0.50;;;16.00;99.90;;;;;;5034469;28;20600;-75
2022/07/30 04:55:07;;;;;;;2.03;0.57;;;15.90;99.90;;;;;;5033683;28;20190;-73
2022/07/30 04:57:42;;;;;;;2.22;0.73;;;15.70;99.90;;;;;;5034234;28;20197;-78
2022/07/30 05:00:15;;;;;;;2.67;0.60;;;15.70;99.90;;;;;;5034065;28;20217;-83
2022/07/30 05:02:47;;;;;;;5.80;1.00;;;15.70;99.90;;;;;;5034002;28;20198;-79
2022/07/30 05:05:20;;;;;;;3.47;0.90;;;15.70;99.90;;;;;;5033486;28;20198;-78
2022/07/30 05:07:51;;;;;;;2.70;0.60;;;15.80;99.90;;;;;;5033840;28;20198;-74
2022/07/30 05:10:22;;;;;;;1.90;0.60;;;15.80;99.90;;;;;;5033372;28;20187;-84
2022/07/30 05:12:53;;;;;;;3.22;0.60;;;15.80;99.90;;;;;;5034023;28;20258;-82
2022/07/30 05:15:25;;;;;;;1.83;0.70;;;15.80;99.90;;;;;;5033806;28;20195;-82
2022/07/30 05:17:56;;;;;;;2.20;0.60;;;15.80;99.90;;;;;;5033435;28;20194;-82
2022/07/30 05:20:26;;;;;;;1.48;0.65;;;15.80;99.90;;;;;;5033353;28;20217;-82
2022/07/30 05:22:57;;;;;;;2.45;0.50;;;15.80;99.90;;;;;;5032939;28;20638;-77
2022/07/30 05:25:28;;;;;;;2.00;0.60;;;15.90;99.90;;;;;;5033477;28;20700;-84
2022/07/30 05:27:59;;;;;;;3.90;0.70;;;15.80;99.90;;;;;;5033350;28;20194;-81
2022/07/30 05:30:31;;;;;;;1.70;0.68;;;15.70;99.90;;;;;;5034014;28;20194;-85
2022/07/30 05:33:02;;;;;;;3.38;0.60;;;15.60;99.90;;;;;;5035969;28;20201;-78
2022/07/30 05:35:32;;;;;;;3.00;0.60;;;15.60;99.90;;;;;;5032453;28;20282;-84
2022/07/30 05:38:03;;;;;;;3.03;0.70;;;15.50;99.90;;;;;;5033416;28;20253;-82
2022/07/30 05:40:34;;;;;;;1.02;0.60;;;15.60;99.90;;;;;;5033429;28;20218;-83
2022/07/30 05:43:05;;;;;;;2.30;0.65;;;15.60;99.90;;;;;;5033500;28;20198;-79
2022/07/30 05:45:37;;;;;;;2.03;0.73;;;15.50;99.90;;;;;;5033016;28;20186;-83
2022/07/30 05:48:09;;;;;;;1.90;0.55;;;15.50;99.90;;;;;;5032525;28;20186;-83
2022/07/30 05:50:39;;;;;;;1.45;0.60;;;15.50;99.90;;;;;;5032835;28;20222;-75
2022/07/30 05:53:10;;;;;;;1.58;0.50;;;15.50;99.90;;;;;;5031486;28;20599;-76
2022/07/30 05:55:41;;;;;;;2.33;0.60;;;15.60;99.90;;;;;;5032461;28;20568;-74
2022/07/30 05:58:12;;;;;;;2.08;0.60;;;15.60;99.90;;;;;;5031154;28;20662;-76
2022/07/30 06:00:44;;;;;;;2.45;0.50;;;15.50;99.90;;;;;;5026932;28;20724;-73
2022/07/30 06:03:15;;;;;;;2.08;0.60;;;15.50;99.90;;;;;;5030487;28;20194;-74
2022/07/30 06:05:46;;;;;;;1.88;0.60;;;15.50;99.90;;;;;;5032472;28;20267;-73
2022/07/30 06:08:17;;;;;;;2.08;0.57;;;15.40;99.90;;;;;;5032960;28;20194;-75
2022/07/30 06:10:47;;;;;;;2.15;0.70;;;15.40;99.90;;;;;;5029783;28;20544;-83
2022/07/30 06:13:18;;;;;;;2.45;0.70;;;15.40;99.90;;;;;;5029977;28;20214;-84
2022/07/30 06:15:51;;;;;;;2.90;0.80;;;15.40;99.90;;;;;;5029679;28;20217;-81
2022/07/30 06:18:21;;;;;;;1.08;0.60;;;15.30;99.90;;;;;;5028780;28;20974;-83
2022/07/30 06:20:53;;;;;;;3.17;0.60;;;15.20;99.90;;;;;;5031147;28;20232;-81
2022/07/30 06:23:24;;;;;;;4.43;0.70;;;15.20;99.90;;;;;;5030823;28;20206;-75
2022/07/30 06:25:54;;;;;;;1.70;0.50;;;15.20;99.90;;;;;;5026827;28;20579;-74
2022/07/30 06:28:28;;;;;;;1.40;0.60;;;15.20;99.90;;;;;;5027033;28;20202;-73
2022/07/30 06:31:01;;;;;;;1.90;0.70;;;15.10;99.90;;;;;;5032527;28;20229;-73
2022/07/30 06:33:31;;;;;;;2.78;0.80;;;15.10;99.90;;;;;;5030693;28;20197;-73
2022/07/30 06:36:02;;;;;;;2.05;0.70;;;15.10;99.90;;;;;;5028336;28;20640;-73
2022/07/30 06:38:33;;;;;;;3.35;0.90;;;15.10;99.90;;;;;;5027687;28;20658;-75
2022/07/30 06:41:04;;;;;;;2.85;1.25;;;15.00;99.90;;;;;;5031502;28;20230;-74
2022/07/30 06:43:34;;;;;;;2.30;0.90;;;15.00;99.90;;;;;;5027744;28;20536;-73
2022/07/30 06:46:07;;;;;;;3.78;0.98;;;15.00;99.90;;;;;;5030204;28;20562;-73
2022/07/30 06:48:38;;;;;;;6.97;1.15;;;14.90;99.90;;;;;;5031009;28;20202;-73
2022/07/30 06:51:09;;;;;;;2.13;1.00;;;14.80;99.90;;;;;;5032273;28;20226;-72
2022/07/30 06:53:39;;;;;;;3.75;1.00;;;14.70;99.90;;;;;;5032479;28;20194;-73
2022/07/30 06:56:10;;;;;;;3.42;0.88;;;14.70;99.90;;;;;;5032426;28;20194;-73
2022/07/30 06:58:40;;;;;;;5.63;1.20;;;14.60;99.90;;;;;;5032285;28;20205;-81
2022/07/30 07:01:13;;;;;;;2.75;1.00;;;14.50;99.90;;;;;;5030931;28;20223;-79
2022/07/30 07:03:44;;;;;;;5.53;1.02;;;14.40;99.90;;;;;;5027769;28;20197;-83
2022/07/30 07:06:15;;;;;;;4.95;1.45;;;14.30;99.90;;;;;;5032353;28;20202;-80
2022/07/30 07:08:45;;;;;;;6.22;1.40;;;14.30;99.90;;;;;;5050119;28;20193;-82
2022/07/30 07:11:16;;;;;;;5.18;1.67;;;14.20;99.90;;;;;;5031957;28;20186;-81
2022/07/30 07:13:47;;;;;;;6.43;1.55;;;14.00;99.90;;;;;;5032361;28;20191;-81
2022/07/30 07:16:20;;;;;;;3.50;1.27;;;14.00;99.90;;;;;;5032228;28;20237;-80
2022/07/30 07:18:51;;;;;;;3.70;1.30;;;13.90;99.90;;;;;;5030244;28;20611;-83
2022/07/30 07:21:22;;;;;;;4.88;1.58;;;13.80;99.90;;;;;;5030071;28;20218;-81
2022/07/30 07:23:52;;;;;;;3.50;1.52;;;13.70;99.90;;;;;;5031436;28;20248;-75
2022/07/30 07:26:23;;;;;;;2.85;1.10;;;13.70;99.90;;;;;;5028239;28;20194;-82
2022/07/30 07:28:54;;;;;;;6.38;1.50;;;13.60;99.90;;;;;;5025431;28;20193;-77
2022/07/30 07:31:26;;;;;;;5.10;1.35;;;13.50;99.90;;;;;;5033005;28;20218;-83
2022/07/30 07:33:57;;;;;;;5.53;1.42;;;13.50;99.90;;;;;;5031848;28;20242;-82
2022/07/30 07:36:28;;;;;;;4.28;1.50;;;13.30;99.90;;;;;;5031478;28;20238;-81
2022/07/30 07:38:58;;;;;;;4.15;1.27;;;13.30;99.90;;;;;;5028882;28;20206;-77
2022/07/30 07:41:29;;;;;;;5.30;1.40;;;13.20;99.90;;;;;;5029156;28;20697;-74
2022/07/30 07:44:00;;;;;;;3.08;1.20;;;13.10;99.90;;;;;;5028888;28;20676;-75
2022/07/30 07:46:32;;;;;;;5.78;1.27;;;13.10;99.90;;;;;;5034112;28;20205;-73
2022/07/30 07:49:03;;;;;;;3.85;1.48;;;13.00;99.90;;;;;;5035169;28;20210;-72
2022/07/30 07:51:34;;;;;;;4.18;1.63;;;13.00;99.90;;;;;;5035338;28;20205;-72
2022/07/30 07:54:05;;;;;;;4.38;1.75;;;13.00;99.90;;;;;;5015702;28;20278;-73
2022/07/30 07:56:36;;;;;;;5.63;1.77;;;12.90;99.90;;;;;;5015576;28;20202;-73
2022/07/30 07:59:07;;;;;;;5.20;1.88;;;12.80;99.90;;;;;;5015581;28;20195;-72
2022/07/30 08:01:39;;;;;;;6.75;2.45;;;12.70;99.90;;;;;;5015564;28;20636;-75
2022/07/30 08:04:10;;;;;;;7.53;3.00;;;12.60;99.90;;;;;;5018578;28;20186;-74
2022/07/30 08:06:40;;;;;;;6.75;2.88;;;12.50;99.90;;;;;;5034945;28;20193;-73
2022/07/30 08:09:11;;;;;;;8.48;3.55;;;12.40;99.90;;;;;;5035006;28;20206;-81
2022/07/30 08:11:42;;;;;;;8.63;3.60;;;12.30;99.90;;;;;;5035258;28;20197;-73
2022/07/30 08:14:13;;;;;;;8.32;3.88;;;12.20;99.90;;;;;;5035165;28;20266;-82
2022/07/30 08:16:45;;;;;;;10.73;3.83;;;12.20;99.90;;;;;;5035356;28;20281;-82
2022/07/30 08:19:16;;;;;;;8.95;4.25;;;12.10;99.90;;;;;;5034692;28;20563;-82
2022/07/30 08:21:46;;;;;;;10.60;4.50;;;12.10;99.90;;;;;;5034239;28;20634;-75
2022/07/30 08:24:17;;;;;;;13.00;4.57;;;12.10;99.90;;;;;;5033796;28;20677;-79
2022/07/30 08:26:48;;;;;;;9.80;5.07;;;12.00;99.90;;;;;;5032832;28;20240;-82
2022/07/30 08:29:18;;;;;;;11.68;4.55;;;12.00;99.90;;;;;;5034896;28;21027;-81
2022/07/30 08:31:51;;;;;;;9.23;4.47;;;11.90;99.90;;;;;;5041570;28;20292;-82
2022/07/30 08:34:22;;;;;;;9.60;4.32;;;11.90;99.90;;;;;;5033940;28;20202;-82
2022/07/30 08:36:52;;;;;;;9.40;4.05;;;11.80;99.90;;;;;;5034070;28;20233;-83
2022/07/30 08:39:23;;;;;;;11.60;4.45;;;11.80;99.90;;;;;;5033493;28;20553;-83
2022/07/30 08:41:54;;;;;;;8.52;3.67;;;11.70;99.90;;;;;;5023687;28;20214;-81
2022/07/30 08:44:25;;;;;;;11.65;3.40;;;11.70;99.90;;;;;;5025483;28;20253;-82
2022/07/30 08:47:00;;;;;;;7.13;3.30;;;11.60;99.90;;;;;;5033624;28;20198;-79
2022/07/30 08:49:31;;;;;;;8.77;3.40;;;11.60;99.90;;;;;;5031653;28;20193;-84
2022/07/30 08:52:02;;;;;;;8.10;3.33;;;11.50;99.90;;;;;;5033940;28;20197;-83
2022/07/30 08:54:33;;;;;;;7.45;3.22;;;11.50;99.90;;;;;;5034320;28;20194;-82
2022/07/30 08:57:04;;;;;;;7.22;3.05;;;11.50;99.90;;;;;;5033828;28;20190;-83
2022/07/30 08:59:36;;;;;;;7.28;2.92;;;11.40;99.90;;;;;;5033833;28;20198;-83
2022/07/30 09:02:09;;;;;;;8.00;3.25;;;11.40;99.90;;;;;;5022293;28;20269;-82
2022/07/30 09:04:39;;;;;;;9.73;3.53;;;11.40;99.90;;;;;;5033843;28;20201;-83
2022/07/30 09:07:10;;;;;;;9.90;3.30;;;11.30;99.90;;;;;;5030358;28;20202;-74
2022/07/30 09:09:41;;;;;;;6.28;2.63;;;11.30;99.90;;;;;;5022653;28;20198;-82
2022/07/30 09:12:35;;;;;;;8.40;3.08;;;11.30;99.90;;;;;;5033987;28;20205;-82
2022/07/30 09:15:09;;;;;;;7.13;3.10;;;11.20;99.90;;;;;;5033760;28;20703;-83
2022/07/30 09:17:56;;;;;;;6.53;3.20;;;11.20;99.90;;;;;;5033591;28;20217;-83
2022/07/30 09:20:28;;;;;;;5.53;3.00;;;11.20;99.90;;;;;;5033354;28;20566;-79
2022/07/30 09:23:00;;;;;;;9.90;3.20;;;11.20;99.90;;;;;;5033191;28;20190;-83
2022/07/30 09:25:39;;;;;;;9.88;3.28;;;11.20;99.90;;;;;;5035021;28;20194;-82
2022/07/30 09:28:12;;;;;;;8.07;3.10;;;11.20;99.90;;;;;;5040751;28;20189;-83
2022/07/30 09:30:50;;;;;;;9.00;3.55;;;11.20;99.90;;;;;;5036748;28;20283;-84
2022/07/30 09:33:35;;;;;;;7.13;3.05;;;11.10;99.90;;;;;;5032707;28;20280;-81
2022/07/30 09:36:07;;;;;;;6.32;3.50;;;11.10;99.90;;;;;;5025447;28;20190;-83
2022/07/30 09:38:48;;;;;;;9.98;3.95;;;11.10;99.90;;;;;;5032867;28;20202;-81
2022/07/30 09:41:25;;;;;;;8.35;4.32;;;11.10;99.90;;;;;;5032878;28;20301;-81
2022/07/30 09:43:55;;;;;;;7.97;4.45;;;11.00;99.90;;;;;;5032800;28;20275;-83
2022/07/30 09:46:45;;;;;;;9.55;4.25;;;11.00;99.90;;;;;;5032079;28;20195;-83
2022/07/30 09:49:22;;;;;;;9.60;4.00;;;10.90;99.90;;;;;;5030401;28;20349;-83
2022/07/30 09:51:53;;;;;;;10.43;4.40;;;10.90;99.90;;;;;;5033530;28;20206;-82
2022/07/30 09:54:24;;;;;;;10.23;4.70;;;10.80;99.90;;;;;;5037780;28;20186;-74
2022/07/30 09:57:08;;;;;;;13.48;5.10;;;10.80;99.90;;;;;;5031230;28;20201;-84
2022/07/30 09:59:38;;;;;;;12.32;4.30;;;10.70;99.90;;;;;;5031435;28;20231;-82
2022/07/30 10:02:11;;;;;;;10.27;4.45;;;10.60;99.90;;;;;;5041199;28;20216;-83
2022/07/30 10:04:43;;;;;;;11.05;4.40;;;10.70;99.90;;;;;;5032392;28;20190;-81
2022/07/30 10:07:21;;;;;;;11.13;4.80;;;10.70;99.90;;;;;;5032374;28;20198;-81
2022/07/30 10:09:52;;;;;;;9.15;4.82;;;10.60;99.90;;;;;;5031164;28;20190;-83
2022/07/30 10:12:24;;;;;;;7.80;4.55;;;10.70;99.90;;;;;;5032452;28;20252;-85
2022/07/30 10:14:57;;;;;;;10.77;5.38;;;10.70;99.90;;;;;;5041245;28;20213;-85
2022/07/30 10:17:29;;;;;;;14.98;5.40;;;10.70;99.90;;;;;;5032427;28;20197;-84
2022/07/30 10:20:02;;;;;;;7.57;5.25;;;10.70;99.90;;;;;;5032047;28;20213;-84
2022/07/30 10:22:33;;;;;;;12.10;5.32;;;10.70;99.90;;;;;;5029268;28;20219;-84
2022/07/30 10:25:04;;;;;;;11.15;5.47;;;10.60;99.90;;;;;;5034331;28;20194;-84
2022/07/30 10:27:35;;;;;;;11.20;5.30;;;10.60;99.90;;;;;;5032554;28;20192;-83
2022/07/30 10:30:06;;;;;;;12.43;5.30;;;10.50;99.90;;;;;;5034822;28;20218;-76
2022/07/30 10:32:38;;;;;;;13.93;5.28;;;10.50;99.90;;;;;;5032663;28;20201;-73
2022/07/30 10:35:12;;;;;;;11.48;5.60;;;10.50;99.90;;;;;;5032255;28;20198;-83
2022/07/30 10:37:49;;;;;;;10.88;5.78;;;10.40;99.90;;;;;;5043873;28;20233;-72
2022/07/30 10:40:28;;;;;;;12.23;5.88;;;10.40;99.90;;;;;;5012833;28;20634;-82
2022/07/30 10:43:15;;;;;;;10.48;5.63;;;10.40;99.90;;;;;;5041037;28;20217;-76
2022/07/30 10:45:56;;;;;;;13.02;5.80;;;10.30;99.90;;;;;;5037996;28;20232;-73
2022/07/30 10:48:27;;;;;;;14.15;6.78;;;10.40;99.90;;;;;;5038174;28;20202;-84
2022/07/30 10:51:00;;;;;;;14.10;6.55;;;10.30;99.90;;;;;;5031932;28;20183;-74
2022/07/30 10:53:39;;;;;;;12.02;6.47;;;10.30;99.90;;;;;;5024561;28;20190;-80
2022/07/30 10:56:19;;;;;;;9.95;6.10;;;10.30;99.90;;;;;;5028365;28;20545;-77
2022/07/30 10:59:06;;;;;;;10.70;5.97;;;10.20;99.90;;;;;;5032010;28;20289;-74
2022/07/30 11:02:10;;;;;;;11.52;5.80;;;10.30;99.90;;;;;;5032343;28;20206;-73
2022/07/30 11:04:41;;;;;;;9.13;5.95;;;10.20;99.90;;;;;;5031976;28;20212;-74
2022/07/30 11:07:33;;;;;;;11.23;5.70;;;10.20;99.90;;;;;;5032148;28;20195;-72
2022/07/30 11:10:04;;;;;;;12.15;5.97;;;10.20;99.90;;;;;;5032270;28;20645;-73
2022/07/30 11:12:56;;;;;;;11.52;6.22;;;10.20;99.90;;;;;;5031801;28;20601;-80
2022/07/30 11:15:47;;;;;;;12.35;6.47;;;10.20;99.90;;;;;;5032041;28;20206;-73
2022/07/30 11:18:17;;;;;;;10.73;6.55;;;10.20;99.90;;;;;;5035567;28;20193;-76
2022/07/30 11:21:18;;;;;;;16.92;7.03;;;10.20;99.90;;;;;;5033521;28;20195;-73
2022/07/30 11:23:51;;;;;;;13.70;6.82;;;10.10;99.90;;;;;;5035894;28;20194;-76
2022/07/30 11:26:52;;;;;;;14.35;6.50;;;10.10;99.90;;;;;;5035845;28;20240;-73
2022/07/30 11:29:40;;;;;;;15.10;6.50;;;10.10;99.90;;;;;;5035723;28;20202;-75
2022/07/30 11:32:31;;;;;;;15.35;6.35;;;10.10;99.90;;;;;;5045949;28;20194;-72
2022/07/30 11:35:17;;;;;;;12.23;5.97;;;10.00;99.90;;;;;;5035844;28;20214;-72
2022/07/30 11:38:05;;;;;;;10.13;5.60;;;10.00;99.90;;;;;;5034634;28;20233;-73
2022/07/30 11:40:40;;;;;;;10.63;5.45;;;10.00;99.90;;;;;;5038843;28;20190;-72
2022/07/30 11:43:22;;;;;;;10.00;5.35;;;9.90;99.90;;;;;;5044243;28;20249;-72
2022/07/30 11:45:54;;;;;;;11.43;5.03;;;10.00;99.90;;;;;;5047527;28;20680;-76
2022/07/30 11:48:24;;;;;;;9.07;4.40;;;10.00;99.90;;;;;;5035128;28;20186;-73
2022/07/30 11:50:58;;;;;;;8.02;4.68;;;10.00;99.90;;;;;;5035837;28;20212;-73
2022/07/30 11:53:29;;;;;;;11.55;4.55;;;10.00;99.90;;;;;;5047504;28;20597;-76
2022/07/30 11:56:02;;;;;;;11.02;4.50;;;10.00;99.90;;;;;;5046246;28;20197;-75
2022/07/30 11:58:35;;;;;;;9.73;4.38;;;10.00;99.90;;;;;;5042544;28;20201;-75
2022/07/30 12:01:07;;;;;;;9.68;4.68;;;10.00;99.90;;;;;;5048203;28;20646;-73
2022/07/30 12:03:43;;;;;;;10.82;5.03;;;9.90;99.90;;;;;;5046766;28;20209;-75
2022/07/30 12:06:16;;;;;;;9.57;5.47;;;9.90;99.90;;;;;;5036823;28;20285;-73
2022/07/30 12:08:48;;;;;;;11.77;5.45;;;9.90;99.90;;;;;;5031945;28;20198;-79
2022/07/30 12:11:21;;;;;;;10.85;4.75;;;9.80;99.90;;;;;;5044361;28;20190;-74
2022/07/30 12:14:00;;;;;;;10.63;4.65;;;9.80;99.90;;;;;;5041365;28;20229;-73
2022/07/30 12:16:32;;;;;;;10.88;4.43;;;9.70;99.90;;;;;;5035128;28;20196;-73
2022/07/30 12:19:05;;;;;;;12.63;4.50;;;9.80;99.90;;;;;;5034278;28;20190;-81
2022/07/30 12:21:36;;;;;;;7.72;4.30;;;9.70;99.90;;;;;;5034901;28;20205;-73
2022/07/30 12:24:08;;;;;;;9.68;4.05;;;9.70;99.90;;;;;;5033762;28;20190;-73
2022/07/30 12:26:41;;;;;;;11.00;4.18;;;9.70;99.90;;;;;;5033775;28;20201;-73
2022/07/30 12:29:13;;;;;;;7.22;4.05;;;9.80;99.90;;;;;;5034277;28;20187;-74
2022/07/30 12:31:45;;;;;;;8.50;3.72;;;9.80;99.90;;;;;;5042899;28;20222;-74
2022/07/30 12:34:26;;;;;;;12.70;4.38;;;9.80;99.90;;;;;;5034120;28;20202;-72
2022/07/30 12:36:57;;;;;;;7.32;3.80;;;9.70;99.90;;;;;;5034955;28;20218;-74
2022/07/30 12:39:29;;;;;;;6.63;3.92;;;9.70;99.90;;;;;;5024024;28;20222;-72
2022/07/30 12:42:02;;;;;;;9.80;4.57;;;9.70;99.90;;;;;;5033962;28;20214;-73
2022/07/30 12:44:40;;;;;;;9.75;4.15;;;9.70;99.90;;;;;;5040886;28;20691;-75
2022/07/30 12:47:22;;;;;;;9.43;4.50;;;9.70;99.90;;;;;;5034830;28;20205;-72
2022/07/30 12:49:53;;;;;;;11.57;5.13;;;9.70;99.90;;;;;;5032010;28;20263;-79
2022/07/30 12:52:26;;;;;;;7.13;4.43;;;9.70;99.90;;;;;;5054295;28;20554;-79
2022/07/30 12:55:05;;;;;;;11.60;4.60;;;9.70;99.90;;;;;;5040207;28;20642;-74
2022/07/30 12:58:02;;;;;;;9.27;4.80;;;9.60;99.90;;;;;;5036064;28;20277;-73
2022/07/30 13:00:34;;;;;;;9.57;4.90;;;9.60;99.90;;;;;;5028582;28;20198;-77
2022/07/30 13:03:20;;;;;;;9.10;4.57;;;9.60;99.90;;;;;;5032744;28;20221;-82
2022/07/30 13:05:52;;;;;;;8.75;4.65;;;9.60;99.90;;;;;;5033650;28;20201;-73
2022/07/30 13:08:43;;;;;;;13.10;5.07;;;9.50;99.90;;;;;;5033956;28;20666;-73
2022/07/30 13:11:13;;;;;;;8.73;4.47;;;9.50;99.90;;;;;;5040889;28;20666;-73
2022/07/30 13:13:46;;;;;;;10.85;5.20;;;9.50;99.90;;;;;;5037925;28;20206;-81
2022/07/30 13:16:17;;;;;;;11.88;4.95;;;9.50;99.90;;;;;;5028861;28;20221;-77
2022/07/30 13:18:48;;;;;;;9.43;4.40;;;9.40;99.90;;;;;;5049420;28;20202;-75
2022/07/30 13:21:19;;;;;;;8.95;4.93;;;9.40;99.90;;;;;;5046167;28;20652;-73